sensor_id;sensor_type;location;lat;lon;timestamp;P1;durP1;ratioP1;P2;durP2;ratioP2
29550;SDS011;16488;52.396;10.696;2023-02-28T00:01:11;14.35;;;5.60;;
29550;SDS011;16488;52.396;10.696;2023-02-28T00:03:38;12.10;;;6.68;;
29550;SDS011;16488;52.396;10.696;2023-02-28T00:06:04;11.07;;;6.70;;
29550;SDS011;16488;52.396;10.696;2023-02-28T00:08:31;12.32;;;5.68;;
29550;SDS011;16488;52.396;10.696;2023-02-28T00:11:00;24.35;;;6.15;;
29550;SDS011;16488;52.396;10.696;2023-02-28T00:13:27;11.98;;;5.80;;
29550;SDS011;16488;52.396;10.696;2023-02-28T00:18:19;12.07;;;6.25;;
29550;SDS011;16488;52.396;10.696;2023-02-28T00:23:11;12.20;;;5.43;;
29550;SDS011;16488;52.396;10.696;2023-02-28T00:28:03;11.43;;;6.10;;
29550;SDS011;16488;52.396;10.696;2023-02-28T00:30:29;11.13;;;5.65;;
29550;SDS011;16488;52.396;10.696;2023-02-28T00:35:21;14.80;;;5.35;;
29550;SDS011;16488;52.396;10.696;2023-02-28T00:40:14;9.68;;;4.68;;
29550;SDS011;16488;52.396;10.696;2023-02-28T00:42:40;9.60;;;5.00;;
29550;SDS011;16488;52.396;10.696;2023-02-28T00:47:33;15.00;;;4.60;;
29550;SDS011;16488;52.396;10.696;2023-02-28T00:49:59;9.07;;;4.88;;
29550;SDS011;16488;52.396;10.696;2023-02-28T00:52:26;10.90;;;5.80;;
29550;SDS011;16488;52.396;10.696;2023-02-28T00:54:52;9.98;;;5.05;;
29550;SDS011;16488;52.396;10.696;2023-02-28T00:59:44;11.73;;;4.30;;
29550;SDS011;16488;52.396;10.696;2023-02-28T01:04:35;8.05;;;4.53;;
29550;SDS011;16488;52.396;10.696;2023-02-28T01:09:27;8.52;;;4.28;;
29550;SDS011;16488;52.396;10.696;2023-02-28T01:14:19;10.82;;;4.88;;
29550;SDS011;16488;52.396;10.696;2023-02-28T01:19:12;11.10;;;5.75;;
29550;SDS011;16488;52.396;10.696;2023-02-28T01:21:38;9.57;;;4.03;;
29550;SDS011;16488;52.396;10.696;2023-02-28T01:24:04;9.38;;;4.57;;
29550;SDS011;16488;52.396;10.696;2023-02-28T01:26:31;8.55;;;4.55;;
29550;SDS011;16488;52.396;10.696;2023-02-28T01:28:58;8.63;;;5.20;;
29550;SDS011;16488;52.396;10.696;2023-02-28T01:31:24;10.63;;;5.18;;
29550;SDS011;16488;52.396;10.696;2023-02-28T01:33:50;11.02;;;4.72;;
29550;SDS011;16488;52.396;10.696;2023-02-28T01:38:42;10.13;;;4.63;;
29550;SDS011;16488;52.396;10.696;2023-02-28T01:41:09;13.85;;;4.68;;
29550;SDS011;16488;52.396;10.696;2023-02-28T01:46:08;9.38;;;5.15;;
29550;SDS011;16488;52.396;10.696;2023-02-28T01:48:36;11.35;;;5.50;;
29550;SDS011;16488;52.396;10.696;2023-02-28T01:51:04;8.07;;;4.45;;
29550;SDS011;16488;52.396;10.696;2023-02-28T01:53:39;8.95;;;5.13;;
29550;SDS011;16488;52.396;10.696;2023-02-28T01:56:07;8.70;;;4.65;;
29550;SDS011;16488;52.396;10.696;2023-02-28T01:58:36;7.07;;;3.97;;
29550;SDS011;16488;52.396;10.696;2023-02-28T02:01:02;11.43;;;4.57;;
29550;SDS011;16488;52.396;10.696;2023-02-28T02:03:28;6.88;;;4.75;;
29550;SDS011;16488;52.396;10.696;2023-02-28T02:05:55;9.45;;;5.68;;
29550;SDS011;16488;52.396;10.696;2023-02-28T02:36:38;16.58;;;4.78;;
29550;SDS011;16488;52.396;10.696;2023-02-28T02:48:50;15.15;;;5.10;;
29550;SDS011;16488;52.396;10.696;2023-02-28T02:51:19;9.80;;;4.65;;
29550;SDS011;16488;52.396;10.696;2023-02-28T02:53:48;7.53;;;4.50;;
29550;SDS011;16488;52.396;10.696;2023-02-28T02:56:17;11.20;;;5.38;;
29550;SDS011;16488;52.396;10.696;2023-02-28T02:58:44;8.52;;;5.13;;
29550;SDS011;16488;52.396;10.696;2023-02-28T03:01:11;10.68;;;5.35;;
29550;SDS011;16488;52.396;10.696;2023-02-28T03:03:38;8.25;;;4.75;;
29550;SDS011;16488;52.396;10.696;2023-02-28T03:06:04;8.77;;;5.30;;
29550;SDS011;16488;52.396;10.696;2023-02-28T03:08:34;8.23;;;4.85;;
29550;SDS011;16488;52.396;10.696;2023-02-28T03:11:16;11.40;;;4.95;;
29550;SDS011;16488;52.396;10.696;2023-02-28T03:13:49;10.20;;;5.90;;
29550;SDS011;16488;52.396;10.696;2023-02-28T03:28:40;10.57;;;5.60;;
29550;SDS011;16488;52.396;10.696;2023-02-28T03:31:15;14.73;;;5.00;;
29550;SDS011;16488;52.396;10.696;2023-02-28T03:33:44;10.18;;;4.90;;
29550;SDS011;16488;52.396;10.696;2023-02-28T03:36:20;11.48;;;4.47;;
29550;SDS011;16488;52.396;10.696;2023-02-28T03:41:23;8.07;;;5.47;;
29550;SDS011;16488;52.396;10.696;2023-02-28T03:43:53;8.20;;;4.75;;
29550;SDS011;16488;52.396;10.696;2023-02-28T03:46:25;8.88;;;4.72;;
29550;SDS011;16488;52.396;10.696;2023-02-28T03:48:57;6.90;;;4.70;;
29550;SDS011;16488;52.396;10.696;2023-02-28T03:51:25;8.30;;;4.70;;
29550;SDS011;16488;52.396;10.696;2023-02-28T03:53:57;10.18;;;5.20;;
29550;SDS011;16488;52.396;10.696;2023-02-28T03:56:27;12.43;;;6.07;;
29550;SDS011;16488;52.396;10.696;2023-02-28T04:01:27;14.07;;;8.35;;
29550;SDS011;16488;52.396;10.696;2023-02-28T04:03:56;11.05;;;7.22;;
29550;SDS011;16488;52.396;10.696;2023-02-28T04:06:23;14.60;;;8.25;;
29550;SDS011;16488;52.396;10.696;2023-02-28T04:08:49;13.45;;;7.70;;
29550;SDS011;16488;52.396;10.696;2023-02-28T04:11:28;9.75;;;5.47;;
29550;SDS011;16488;52.396;10.696;2023-02-28T04:13:55;10.10;;;6.22;;
29550;SDS011;16488;52.396;10.696;2023-02-28T04:16:21;20.20;;;6.80;;
29550;SDS011;16488;52.396;10.696;2023-02-28T04:18:47;12.43;;;5.82;;
29550;SDS011;16488;52.396;10.696;2023-02-28T04:23:39;11.00;;;5.50;;
29550;SDS011;16488;52.396;10.696;2023-02-28T04:26:06;9.43;;;5.55;;
29550;SDS011;16488;52.396;10.696;2023-02-28T04:28:32;10.82;;;4.95;;
29550;SDS011;16488;52.396;10.696;2023-02-28T04:31:00;13.48;;;6.55;;
29550;SDS011;16488;52.396;10.696;2023-02-28T04:33:26;16.55;;;7.28;;
29550;SDS011;16488;52.396;10.696;2023-02-28T04:35:59;12.13;;;6.13;;
29550;SDS011;16488;52.396;10.696;2023-02-28T04:38:26;11.60;;;6.75;;
29550;SDS011;16488;52.396;10.696;2023-02-28T04:40:52;10.75;;;6.97;;
29550;SDS011;16488;52.396;10.696;2023-02-28T04:45:44;10.60;;;6.25;;
29550;SDS011;16488;52.396;10.696;2023-02-28T04:50:36;17.42;;;6.75;;
29550;SDS011;16488;52.396;10.696;2023-02-28T04:55:27;12.10;;;6.47;;
29550;SDS011;16488;52.396;10.696;2023-02-28T05:00:20;11.90;;;6.43;;
29550;SDS011;16488;52.396;10.696;2023-02-28T05:02:46;12.52;;;7.20;;
29550;SDS011;16488;52.396;10.696;2023-02-28T05:07:43;15.55;;;7.43;;
29550;SDS011;16488;52.396;10.696;2023-02-28T05:10:09;16.50;;;7.43;;
29550;SDS011;16488;52.396;10.696;2023-02-28T05:12:35;12.20;;;7.35;;
29550;SDS011;16488;52.396;10.696;2023-02-28T05:17:27;12.32;;;6.93;;
29550;SDS011;16488;52.396;10.696;2023-02-28T05:19:53;10.38;;;6.80;;
29550;SDS011;16488;52.396;10.696;2023-02-28T05:24:45;15.18;;;8.25;;
29550;SDS011;16488;52.396;10.696;2023-02-28T05:29:37;15.45;;;7.72;;
29550;SDS011;16488;52.396;10.696;2023-02-28T05:32:10;14.40;;;7.38;;
29550;SDS011;16488;52.396;10.696;2023-02-28T05:34:39;15.90;;;7.47;;
29550;SDS011;16488;52.396;10.696;2023-02-28T05:37:06;16.13;;;9.13;;
29550;SDS011;16488;52.396;10.696;2023-02-28T05:39:32;18.40;;;9.52;;
29550;SDS011;16488;52.396;10.696;2023-02-28T05:41:58;16.65;;;7.95;;
29550;SDS011;16488;52.396;10.696;2023-02-28T05:44:24;14.60;;;7.93;;
29550;SDS011;16488;52.396;10.696;2023-02-28T05:46:50;20.27;;;9.43;;
29550;SDS011;16488;52.396;10.696;2023-02-28T05:51:42;11.27;;;6.53;;
29550;SDS011;16488;52.396;10.696;2023-02-28T05:56:34;13.35;;;8.60;;
29550;SDS011;16488;52.396;10.696;2023-02-28T05:59:02;12.65;;;7.45;;
29550;SDS011;16488;52.396;10.696;2023-02-28T06:04:00;16.17;;;8.02;;
29550;SDS011;16488;52.396;10.696;2023-02-28T06:06:27;15.48;;;7.82;;
29550;SDS011;16488;52.396;10.696;2023-02-28T06:08:53;16.63;;;7.97;;
29550;SDS011;16488;52.396;10.696;2023-02-28T06:13:45;17.63;;;9.27;;
29550;SDS011;16488;52.396;10.696;2023-02-28T06:16:11;19.40;;;8.80;;
29550;SDS011;16488;52.396;10.696;2023-02-28T06:18:37;14.68;;;8.57;;
29550;SDS011;16488;52.396;10.696;2023-02-28T06:21:03;19.02;;;8.23;;
29550;SDS011;16488;52.396;10.696;2023-02-28T06:23:30;18.35;;;9.88;;
29550;SDS011;16488;52.396;10.696;2023-02-28T06:25:56;16.80;;;9.35;;
29550;SDS011;16488;52.396;10.696;2023-02-28T06:28:23;24.67;;;12.32;;
29550;SDS011;16488;52.396;10.696;2023-02-28T06:30:50;17.63;;;10.02;;
29550;SDS011;16488;52.396;10.696;2023-02-28T06:33:16;20.15;;;10.48;;
29550;SDS011;16488;52.396;10.696;2023-02-28T06:35:46;18.58;;;9.40;;
29550;SDS011;16488;52.396;10.696;2023-02-28T06:38:13;20.85;;;10.43;;
29550;SDS011;16488;52.396;10.696;2023-02-28T06:40:39;25.90;;;13.27;;
29550;SDS011;16488;52.396;10.696;2023-02-28T06:43:05;75.75;;;18.50;;
29550;SDS011;16488;52.396;10.696;2023-02-28T06:45:31;29.60;;;13.98;;
29550;SDS011;16488;52.396;10.696;2023-02-28T06:47:57;24.58;;;11.25;;
29550;SDS011;16488;52.396;10.696;2023-02-28T06:50:25;23.05;;;12.05;;
29550;SDS011;16488;52.396;10.696;2023-02-28T06:52:53;25.35;;;12.07;;
29550;SDS011;16488;52.396;10.696;2023-02-28T06:55:20;27.83;;;13.32;;
29550;SDS011;16488;52.396;10.696;2023-02-28T06:57:46;26.00;;;13.48;;
29550;SDS011;16488;52.396;10.696;2023-02-28T07:00:12;34.80;;;14.77;;
29550;SDS011;16488;52.396;10.696;2023-02-28T07:02:39;34.10;;;15.73;;
29550;SDS011;16488;52.396;10.696;2023-02-28T07:05:05;30.23;;;14.95;;
29550;SDS011;16488;52.396;10.696;2023-02-28T07:07:31;26.35;;;13.13;;
29550;SDS011;16488;52.396;10.696;2023-02-28T07:09:58;24.63;;;13.82;;
29550;SDS011;16488;52.396;10.696;2023-02-28T07:12:24;28.58;;;15.77;;
29550;SDS011;16488;52.396;10.696;2023-02-28T07:17:16;27.15;;;13.40;;
29550;SDS011;16488;52.396;10.696;2023-02-28T07:22:08;29.20;;;12.73;;
29550;SDS011;16488;52.396;10.696;2023-02-28T07:24:34;30.38;;;12.85;;
29550;SDS011;16488;52.396;10.696;2023-02-28T07:27:00;26.35;;;13.55;;
29550;SDS011;16488;52.396;10.696;2023-02-28T07:31:52;19.13;;;10.20;;
29550;SDS011;16488;52.396;10.696;2023-02-28T07:36:44;27.67;;;11.40;;
29550;SDS011;16488;52.396;10.696;2023-02-28T07:41:36;19.42;;;9.73;;
29550;SDS011;16488;52.396;10.696;2023-02-28T07:44:08;19.63;;;9.82;;
29550;SDS011;16488;52.396;10.696;2023-02-28T07:46:34;18.98;;;10.95;;
29550;SDS011;16488;52.396;10.696;2023-02-28T07:49:01;13.93;;;6.93;;
29550;SDS011;16488;52.396;10.696;2023-02-28T07:51:28;13.57;;;6.53;;
29550;SDS011;16488;52.396;10.696;2023-02-28T07:53:54;12.57;;;7.63;;
29550;SDS011;16488;52.396;10.696;2023-02-28T07:56:20;11.93;;;6.70;;
29550;SDS011;16488;52.396;10.696;2023-02-28T07:58:47;10.10;;;4.78;;
29550;SDS011;16488;52.396;10.696;2023-02-28T08:03:39;6.53;;;3.23;;
29550;SDS011;16488;52.396;10.696;2023-02-28T08:06:06;10.40;;;4.13;;
29550;SDS011;16488;52.396;10.696;2023-02-28T08:08:33;7.28;;;3.65;;
29550;SDS011;16488;52.396;10.696;2023-02-28T08:13:25;9.88;;;4.22;;
29550;SDS011;16488;52.396;10.696;2023-02-28T08:15:52;10.10;;;4.60;;
29550;SDS011;16488;52.396;10.696;2023-02-28T08:18:19;11.05;;;4.05;;
29550;SDS011;16488;52.396;10.696;2023-02-28T08:23:11;6.90;;;4.20;;
29550;SDS011;16488;52.396;10.696;2023-02-28T08:25:37;10.65;;;4.22;;
29550;SDS011;16488;52.396;10.696;2023-02-28T08:30:29;14.05;;;4.13;;
29550;SDS011;16488;52.396;10.696;2023-02-28T08:35:21;8.85;;;4.00;;
29550;SDS011;16488;52.396;10.696;2023-02-28T08:37:48;10.55;;;4.53;;
29550;SDS011;16488;52.396;10.696;2023-02-28T08:40:14;11.57;;;4.38;;
29550;SDS011;16488;52.396;10.696;2023-02-28T08:42:43;7.38;;;4.28;;
29550;SDS011;16488;52.396;10.696;2023-02-28T08:45:10;12.32;;;4.45;;
29550;SDS011;16488;52.396;10.696;2023-02-28T08:47:36;7.55;;;4.15;;
29550;SDS011;16488;52.396;10.696;2023-02-28T08:50:03;9.15;;;5.32;;
29550;SDS011;16488;52.396;10.696;2023-02-28T08:55:06;11.52;;;5.53;;
29550;SDS011;16488;52.396;10.696;2023-02-28T08:57:34;13.07;;;6.93;;
29550;SDS011;16488;52.396;10.696;2023-02-28T09:00:00;12.90;;;6.68;;
29550;SDS011;16488;52.396;10.696;2023-02-28T09:02:29;16.77;;;7.07;;
29550;SDS011;16488;52.396;10.696;2023-02-28T09:04:58;16.75;;;8.38;;
29550;SDS011;16488;52.396;10.696;2023-02-28T09:07:25;14.68;;;7.22;;
29550;SDS011;16488;52.396;10.696;2023-02-28T09:12:21;16.13;;;6.88;;
29550;SDS011;16488;52.396;10.696;2023-02-28T09:14:47;16.23;;;7.40;;
29550;SDS011;16488;52.396;10.696;2023-02-28T09:17:13;15.43;;;7.70;;
29550;SDS011;16488;52.396;10.696;2023-02-28T09:19:39;14.75;;;6.55;;
29550;SDS011;16488;52.396;10.696;2023-02-28T09:22:06;15.95;;;7.00;;
29550;SDS011;16488;52.396;10.696;2023-02-28T09:26:58;17.83;;;7.13;;
29550;SDS011;16488;52.396;10.696;2023-02-28T09:29:24;16.83;;;6.45;;
29550;SDS011;16488;52.396;10.696;2023-02-28T09:31:50;22.48;;;8.52;;
29550;SDS011;16488;52.396;10.696;2023-02-28T09:34:16;14.57;;;7.07;;
29550;SDS011;16488;52.396;10.696;2023-02-28T09:36:42;14.70;;;7.05;;
29550;SDS011;16488;52.396;10.696;2023-02-28T09:39:08;14.95;;;7.45;;
29550;SDS011;16488;52.396;10.696;2023-02-28T09:44:02;16.90;;;6.00;;
29550;SDS011;16488;52.396;10.696;2023-02-28T09:46:33;11.77;;;5.78;;
29550;SDS011;16488;52.396;10.696;2023-02-28T09:49:05;14.02;;;5.85;;
29550;SDS011;16488;52.396;10.696;2023-02-28T09:54:21;9.65;;;5.95;;
29550;SDS011;16488;52.396;10.696;2023-02-28T09:56:55;14.73;;;6.45;;
29550;SDS011;16488;52.396;10.696;2023-02-28T09:59:29;9.95;;;5.78;;
29550;SDS011;16488;52.396;10.696;2023-02-28T10:02:01;15.75;;;7.10;;
29550;SDS011;16488;52.396;10.696;2023-02-28T10:06:58;10.80;;;6.15;;
29550;SDS011;16488;52.396;10.696;2023-02-28T10:09:25;15.20;;;6.75;;
29550;SDS011;16488;52.396;10.696;2023-02-28T10:11:54;7.72;;;4.82;;
29550;SDS011;16488;52.396;10.696;2023-02-28T10:14:23;10.52;;;5.28;;
29550;SDS011;16488;52.396;10.696;2023-02-28T10:16:52;8.15;;;4.82;;
29550;SDS011;16488;52.396;10.696;2023-02-28T10:19:24;12.20;;;4.57;;
29550;SDS011;16488;52.396;10.696;2023-02-28T10:21:56;9.32;;;4.40;;
29550;SDS011;16488;52.396;10.696;2023-02-28T10:26:56;10.40;;;4.47;;
29550;SDS011;16488;52.396;10.696;2023-02-28T10:29:24;8.43;;;3.70;;
29550;SDS011;16488;52.396;10.696;2023-02-28T10:31:50;7.15;;;3.97;;
29550;SDS011;16488;52.396;10.696;2023-02-28T10:34:16;6.05;;;3.25;;
29550;SDS011;16488;52.396;10.696;2023-02-28T10:36:42;5.32;;;3.20;;
29550;SDS011;16488;52.396;10.696;2023-02-28T10:41:34;7.45;;;2.95;;
29550;SDS011;16488;52.396;10.696;2023-02-28T10:44:21;6.55;;;3.38;;
29550;SDS011;16488;52.396;10.696;2023-02-28T10:46:48;3.55;;;3.05;;
29550;SDS011;16488;52.396;10.696;2023-02-28T10:49:19;5.95;;;3.20;;
29550;SDS011;16488;52.396;10.696;2023-02-28T10:51:46;3.75;;;2.30;;
29550;SDS011;16488;52.396;10.696;2023-02-28T10:57:19;5.65;;;3.15;;
29550;SDS011;16488;52.396;10.696;2023-02-28T10:59:46;5.75;;;3.15;;
29550;SDS011;16488;52.396;10.696;2023-02-28T11:02:29;4.50;;;2.72;;
29550;SDS011;16488;52.396;10.696;2023-02-28T11:04:56;4.47;;;2.78;;
29550;SDS011;16488;52.396;10.696;2023-02-28T11:07:23;8.45;;;2.72;;
29550;SDS011;16488;52.396;10.696;2023-02-28T11:09:51;5.22;;;2.88;;
29550;SDS011;16488;52.396;10.696;2023-02-28T11:12:22;6.05;;;3.25;;
29550;SDS011;16488;52.396;10.696;2023-02-28T11:14:53;5.53;;;3.17;;
29550;SDS011;16488;52.396;10.696;2023-02-28T11:17:21;4.10;;;2.97;;
29550;SDS011;16488;52.396;10.696;2023-02-28T11:19:50;5.00;;;3.08;;
29550;SDS011;16488;52.396;10.696;2023-02-28T11:22:21;3.50;;;2.67;;
29550;SDS011;16488;52.396;10.696;2023-02-28T11:24:48;5.32;;;2.78;;
29550;SDS011;16488;52.396;10.696;2023-02-28T11:27:26;5.43;;;2.65;;
29550;SDS011;16488;52.396;10.696;2023-02-28T11:30:12;8.82;;;4.03;;
29550;SDS011;16488;52.396;10.696;2023-02-28T11:32:48;8.50;;;5.07;;
29550;SDS011;16488;52.396;10.696;2023-02-28T11:35:23;6.53;;;3.20;;
29550;SDS011;16488;52.396;10.696;2023-02-28T11:37:50;7.75;;;4.20;;
29550;SDS011;16488;52.396;10.696;2023-02-28T11:41:02;6.90;;;3.15;;
29550;SDS011;16488;52.396;10.696;2023-02-28T11:45:49;10.23;;;3.75;;
29550;SDS011;16488;52.396;10.696;2023-02-28T11:48:21;5.35;;;3.45;;
29550;SDS011;16488;52.396;10.696;2023-02-28T11:50:54;3.75;;;2.60;;
29550;SDS011;16488;52.396;10.696;2023-02-28T11:53:27;4.72;;;3.70;;
29550;SDS011;16488;52.396;10.696;2023-02-28T12:03:54;9.43;;;3.60;;
29550;SDS011;16488;52.396;10.696;2023-02-28T12:14:03;7.95;;;4.78;;
29550;SDS011;16488;52.396;10.696;2023-02-28T12:19:06;4.13;;;3.05;;
29550;SDS011;16488;52.396;10.696;2023-02-28T12:24:17;8.00;;;3.35;;
29550;SDS011;16488;52.396;10.696;2023-02-28T12:26:48;4.88;;;2.58;;
29550;SDS011;16488;52.396;10.696;2023-02-28T12:29:23;7.72;;;4.80;;
29550;SDS011;16488;52.396;10.696;2023-02-28T12:31:55;6.28;;;2.97;;
29550;SDS011;16488;52.396;10.696;2023-02-28T12:34:22;7.32;;;2.85;;
29550;SDS011;16488;52.396;10.696;2023-02-28T12:36:51;5.10;;;3.15;;
29550;SDS011;16488;52.396;10.696;2023-02-28T12:39:28;5.45;;;3.33;;
29550;SDS011;16488;52.396;10.696;2023-02-28T12:41:59;5.22;;;2.80;;
29550;SDS011;16488;52.396;10.696;2023-02-28T12:46:58;6.60;;;2.75;;
29550;SDS011;16488;52.396;10.696;2023-02-28T12:49:27;9.55;;;3.15;;
29550;SDS011;16488;52.396;10.696;2023-02-28T12:51:56;6.30;;;3.63;;
29550;SDS011;16488;52.396;10.696;2023-02-28T12:54:28;4.25;;;2.95;;
29550;SDS011;16488;52.396;10.696;2023-02-28T13:06:57;5.50;;;3.25;;
29550;SDS011;16488;52.396;10.696;2023-02-28T13:09:25;5.15;;;2.97;;
29550;SDS011;16488;52.396;10.696;2023-02-28T13:11:54;7.72;;;2.83;;
29550;SDS011;16488;52.396;10.696;2023-02-28T13:14:23;5.28;;;2.97;;
29550;SDS011;16488;52.396;10.696;2023-02-28T13:16:51;3.72;;;2.65;;
29550;SDS011;16488;52.396;10.696;2023-02-28T13:19:19;3.90;;;2.90;;
29550;SDS011;16488;52.396;10.696;2023-02-28T13:21:45;5.35;;;2.85;;
29550;SDS011;16488;52.396;10.696;2023-02-28T13:24:35;4.68;;;2.67;;
29550;SDS011;16488;52.396;10.696;2023-02-28T13:29:37;5.28;;;2.67;;
29550;SDS011;16488;52.396;10.696;2023-02-28T13:34:38;4.15;;;2.63;;
29550;SDS011;16488;52.396;10.696;2023-02-28T13:39:46;5.05;;;2.90;;
29550;SDS011;16488;52.396;10.696;2023-02-28T13:50:18;6.13;;;3.08;;
29550;SDS011;16488;52.396;10.696;2023-02-28T13:55:37;6.72;;;2.90;;
29550;SDS011;16488;52.396;10.696;2023-02-28T14:07:56;4.53;;;2.92;;
29550;SDS011;16488;52.396;10.696;2023-02-28T14:10:29;5.63;;;2.90;;
29550;SDS011;16488;52.396;10.696;2023-02-28T14:12:58;5.55;;;3.65;;
29550;SDS011;16488;52.396;10.696;2023-02-28T14:17:56;5.38;;;3.30;;
29550;SDS011;16488;52.396;10.696;2023-02-28T14:20:25;5.72;;;3.67;;
29550;SDS011;16488;52.396;10.696;2023-02-28T14:23:14;5.97;;;3.20;;
29550;SDS011;16488;52.396;10.696;2023-02-28T14:25:48;7.63;;;3.55;;
29550;SDS011;16488;52.396;10.696;2023-02-28T14:33:23;5.20;;;3.13;;
29550;SDS011;16488;52.396;10.696;2023-02-28T14:38:25;6.60;;;3.30;;
29550;SDS011;16488;52.396;10.696;2023-02-28T14:40:52;5.35;;;3.58;;
29550;SDS011;16488;52.396;10.696;2023-02-28T14:43:21;5.00;;;3.28;;
29550;SDS011;16488;52.396;10.696;2023-02-28T14:45:49;6.40;;;2.80;;
29550;SDS011;16488;52.396;10.696;2023-02-28T14:48:16;5.10;;;2.70;;
29550;SDS011;16488;52.396;10.696;2023-02-28T14:50:47;9.30;;;2.70;;
29550;SDS011;16488;52.396;10.696;2023-02-28T14:53:15;6.03;;;3.22;;
29550;SDS011;16488;52.396;10.696;2023-02-28T14:55:47;7.75;;;3.13;;
29550;SDS011;16488;52.396;10.696;2023-02-28T14:58:24;6.22;;;3.10;;
29550;SDS011;16488;52.396;10.696;2023-02-28T15:00:51;6.93;;;3.00;;
29550;SDS011;16488;52.396;10.696;2023-02-28T15:05:51;5.35;;;3.55;;
29550;SDS011;16488;52.396;10.696;2023-02-28T15:08:17;6.47;;;3.25;;
29550;SDS011;16488;52.396;10.696;2023-02-28T15:10:49;5.50;;;2.97;;
29550;SDS011;16488;52.396;10.696;2023-02-28T15:13:16;6.18;;;3.33;;
29550;SDS011;16488;52.396;10.696;2023-02-28T15:18:12;5.35;;;2.50;;
29550;SDS011;16488;52.396;10.696;2023-02-28T15:20:40;5.70;;;2.45;;
29550;SDS011;16488;52.396;10.696;2023-02-28T15:23:07;4.50;;;2.47;;
29550;SDS011;16488;52.396;10.696;2023-02-28T15:25:33;8.68;;;3.47;;
29550;SDS011;16488;52.396;10.696;2023-02-28T15:27:59;4.78;;;2.75;;
29550;SDS011;16488;52.396;10.696;2023-02-28T15:30:27;9.10;;;3.72;;
29550;SDS011;16488;52.396;10.696;2023-02-28T15:35:40;7.25;;;3.28;;
29550;SDS011;16488;52.396;10.696;2023-02-28T15:38:15;5.65;;;3.08;;
29550;SDS011;16488;52.396;10.696;2023-02-28T15:40:42;10.00;;;3.05;;
29550;SDS011;16488;52.396;10.696;2023-02-28T15:48:09;6.35;;;3.17;;
29550;SDS011;16488;52.396;10.696;2023-02-28T15:50:39;5.78;;;2.67;;
29550;SDS011;16488;52.396;10.696;2023-02-28T15:53:05;5.63;;;2.47;;
29550;SDS011;16488;52.396;10.696;2023-02-28T15:55:38;4.53;;;2.20;;
29550;SDS011;16488;52.396;10.696;2023-02-28T15:58:04;5.07;;;2.90;;
29550;SDS011;16488;52.396;10.696;2023-02-28T16:00:31;5.65;;;2.75;;
29550;SDS011;16488;52.396;10.696;2023-02-28T16:03:00;5.97;;;3.35;;
29550;SDS011;16488;52.396;10.696;2023-02-28T16:05:28;10.15;;;3.20;;
29550;SDS011;16488;52.396;10.696;2023-02-28T16:07:58;8.80;;;3.17;;
29550;SDS011;16488;52.396;10.696;2023-02-28T16:10:25;4.93;;;2.25;;
29550;SDS011;16488;52.396;10.696;2023-02-28T16:12:55;6.75;;;2.88;;
29550;SDS011;16488;52.396;10.696;2023-02-28T16:15:24;5.18;;;3.97;;
29550;SDS011;16488;52.396;10.696;2023-02-28T16:17:51;6.28;;;3.03;;
29550;SDS011;16488;52.396;10.696;2023-02-28T16:20:19;6.60;;;2.95;;
29550;SDS011;16488;52.396;10.696;2023-02-28T16:22:45;5.35;;;2.90;;
29550;SDS011;16488;52.396;10.696;2023-02-28T16:25:15;4.75;;;2.90;;
29550;SDS011;16488;52.396;10.696;2023-02-28T16:27:42;6.22;;;3.35;;
29550;SDS011;16488;52.396;10.696;2023-02-28T16:30:13;5.72;;;3.22;;
29550;SDS011;16488;52.396;10.696;2023-02-28T16:32:40;4.30;;;2.55;;
29550;SDS011;16488;52.396;10.696;2023-02-28T16:35:09;6.38;;;3.05;;
29550;SDS011;16488;52.396;10.696;2023-02-28T16:37:35;5.28;;;3.10;;
29550;SDS011;16488;52.396;10.696;2023-02-28T16:40:02;6.85;;;3.15;;
29550;SDS011;16488;52.396;10.696;2023-02-28T16:42:29;4.70;;;2.65;;
29550;SDS011;16488;52.396;10.696;2023-02-28T16:44:56;5.72;;;3.15;;
29550;SDS011;16488;52.396;10.696;2023-02-28T16:47:23;6.47;;;3.15;;
29550;SDS011;16488;52.396;10.696;2023-02-28T16:49:49;4.75;;;3.00;;
29550;SDS011;16488;52.396;10.696;2023-02-28T16:52:15;5.82;;;3.05;;
29550;SDS011;16488;52.396;10.696;2023-02-28T16:54:41;12.45;;;4.05;;
29550;SDS011;16488;52.396;10.696;2023-02-28T16:59:33;9.55;;;4.15;;
29550;SDS011;16488;52.396;10.696;2023-02-28T17:01:59;7.60;;;4.75;;
29550;SDS011;16488;52.396;10.696;2023-02-28T17:04:26;7.07;;;4.85;;
29550;SDS011;16488;52.396;10.696;2023-02-28T17:06:52;8.45;;;4.28;;
29550;SDS011;16488;52.396;10.696;2023-02-28T17:09:21;11.25;;;5.13;;
29550;SDS011;16488;52.396;10.696;2023-02-28T17:11:48;11.50;;;5.88;;
29550;SDS011;16488;52.396;10.696;2023-02-28T17:16:40;9.45;;;5.60;;
29550;SDS011;16488;52.396;10.696;2023-02-28T17:19:09;9.95;;;6.53;;
29550;SDS011;16488;52.396;10.696;2023-02-28T17:21:36;7.95;;;5.57;;
29550;SDS011;16488;52.396;10.696;2023-02-28T17:26:28;9.55;;;5.57;;
29550;SDS011;16488;52.396;10.696;2023-02-28T17:28:55;10.50;;;6.30;;
29550;SDS011;16488;52.396;10.696;2023-02-28T17:31:22;10.90;;;6.00;;
29550;SDS011;16488;52.396;10.696;2023-02-28T17:33:48;16.33;;;6.82;;
29550;SDS011;16488;52.396;10.696;2023-02-28T17:38:40;8.82;;;5.93;;
29550;SDS011;16488;52.396;10.696;2023-02-28T17:41:07;13.30;;;5.97;;
29550;SDS011;16488;52.396;10.696;2023-02-28T17:43:36;12.13;;;6.40;;
29550;SDS011;16488;52.396;10.696;2023-02-28T17:46:02;9.57;;;6.18;;
29550;SDS011;16488;52.396;10.696;2023-02-28T17:48:30;11.25;;;5.88;;
29550;SDS011;16488;52.396;10.696;2023-02-28T17:50:56;13.30;;;6.30;;
29550;SDS011;16488;52.396;10.696;2023-02-28T17:53:22;8.70;;;5.50;;
29550;SDS011;16488;52.396;10.696;2023-02-28T17:55:49;11.75;;;6.43;;
29550;SDS011;16488;52.396;10.696;2023-02-28T17:58:15;10.70;;;6.03;;
29550;SDS011;16488;52.396;10.696;2023-02-28T18:00:43;17.83;;;6.32;;
29550;SDS011;16488;52.396;10.696;2023-02-28T18:03:09;8.38;;;5.88;;
29550;SDS011;16488;52.396;10.696;2023-02-28T18:05:38;21.65;;;7.15;;
29550;SDS011;16488;52.396;10.696;2023-02-28T18:10:30;11.10;;;6.82;;
29550;SDS011;16488;52.396;10.696;2023-02-28T18:12:58;15.25;;;7.75;;
29550;SDS011;16488;52.396;10.696;2023-02-28T18:15:24;16.08;;;9.32;;
29550;SDS011;16488;52.396;10.696;2023-02-28T18:17:51;21.83;;;10.55;;
29550;SDS011;16488;52.396;10.696;2023-02-28T18:20:17;11.85;;;6.88;;
29550;SDS011;16488;52.396;10.696;2023-02-28T18:22:44;14.50;;;7.32;;
29550;SDS011;16488;52.396;10.696;2023-02-28T18:25:10;13.30;;;6.68;;
29550;SDS011;16488;52.396;10.696;2023-02-28T18:27:41;13.55;;;6.97;;
29550;SDS011;16488;52.396;10.696;2023-02-28T18:30:18;10.35;;;7.22;;
29550;SDS011;16488;52.396;10.696;2023-02-28T18:32:44;17.70;;;7.80;;
29550;SDS011;16488;52.396;10.696;2023-02-28T18:35:10;14.98;;;9.15;;
29550;SDS011;16488;52.396;10.696;2023-02-28T18:37:36;16.08;;;8.35;;
29550;SDS011;16488;52.396;10.696;2023-02-28T18:42:28;13.15;;;6.88;;
29550;SDS011;16488;52.396;10.696;2023-02-28T18:44:54;12.38;;;6.43;;
29550;SDS011;16488;52.396;10.696;2023-02-28T18:47:20;12.93;;;7.90;;
29550;SDS011;16488;52.396;10.696;2023-02-28T18:49:46;10.88;;;7.55;;
29550;SDS011;16488;52.396;10.696;2023-02-28T18:52:12;14.75;;;7.47;;
29550;SDS011;16488;52.396;10.696;2023-02-28T18:54:38;11.55;;;6.60;;
29550;SDS011;16488;52.396;10.696;2023-02-28T18:57:04;13.60;;;6.03;;
29550;SDS011;16488;52.396;10.696;2023-02-28T18:59:30;16.73;;;6.03;;